sensor_id;sensor_type;location;lat;lon;timestamp;P1;durP1;ratioP1;P2;durP2;ratioP2
34725;SDS011;20951;50.818;4.344;2023-05-19T00:00:17;14.05;;;6.65;;
34725;SDS011;20951;50.818;4.344;2023-05-19T00:02:45;15.80;;;6.90;;
34725;SDS011;20951;50.818;4.344;2023-05-19T00:05:11;14.93;;;6.55;;
34725;SDS011;20951;50.818;4.344;2023-05-19T00:07:39;15.18;;;7.10;;
34725;SDS011;20951;50.818;4.344;2023-05-19T00:10:07;14.02;;;6.75;;
34725;SDS011;20951;50.818;4.344;2023-05-19T00:12:34;13.93;;;7.63;;
34725;SDS011;20951;50.818;4.344;2023-05-19T00:15:01;17.52;;;7.53;;
34725;SDS011;20951;50.818;4.344;2023-05-19T00:17:27;11.38;;;7.05;;
34725;SDS011;20951;50.818;4.344;2023-05-19T00:19:53;14.13;;;7.15;;
34725;SDS011;20951;50.818;4.344;2023-05-19T00:22:19;13.52;;;7.63;;
34725;SDS011;20951;50.818;4.344;2023-05-19T00:24:45;15.40;;;7.53;;
34725;SDS011;20951;50.818;4.344;2023-05-19T00:27:10;16.55;;;8.30;;
34725;SDS011;20951;50.818;4.344;2023-05-19T00:29:36;12.65;;;7.72;;
34725;SDS011;20951;50.818;4.344;2023-05-19T00:32:02;14.77;;;7.18;;
34725;SDS011;20951;50.818;4.344;2023-05-19T00:34:28;16.95;;;7.88;;
34725;SDS011;20951;50.818;4.344;2023-05-19T00:36:53;17.45;;;7.72;;
34725;SDS011;20951;50.818;4.344;2023-05-19T00:39:19;12.77;;;7.85;;
34725;SDS011;20951;50.818;4.344;2023-05-19T00:41:45;15.32;;;8.00;;
34725;SDS011;20951;50.818;4.344;2023-05-19T00:44:11;16.55;;;7.90;;
34725;SDS011;20951;50.818;4.344;2023-05-19T00:46:36;14.05;;;7.88;;
34725;SDS011;20951;50.818;4.344;2023-05-19T00:49:02;15.65;;;8.00;;
34725;SDS011;20951;50.818;4.344;2023-05-19T00:51:28;13.85;;;7.88;;
34725;SDS011;20951;50.818;4.344;2023-05-19T00:53:55;17.45;;;8.48;;
34725;SDS011;20951;50.818;4.344;2023-05-19T00:56:20;15.07;;;8.23;;
34725;SDS011;20951;50.818;4.344;2023-05-19T00:58:47;14.30;;;8.18;;
34725;SDS011;20951;50.818;4.344;2023-05-19T01:01:18;15.52;;;8.20;;
34725;SDS011;20951;50.818;4.344;2023-05-19T01:03:45;14.15;;;8.48;;
34725;SDS011;20951;50.818;4.344;2023-05-19T01:06:12;17.23;;;8.55;;
34725;SDS011;20951;50.818;4.344;2023-05-19T01:08:38;15.13;;;8.48;;
34725;SDS011;20951;50.818;4.344;2023-05-19T01:11:05;14.75;;;8.40;;
34725;SDS011;20951;50.818;4.344;2023-05-19T01:13:31;17.13;;;8.15;;
34725;SDS011;20951;50.818;4.344;2023-05-19T01:24:04;16.60;;;8.77;;
34725;SDS011;20951;50.818;4.344;2023-05-19T01:32:07;16.05;;;8.27;;
34725;SDS011;20951;50.818;4.344;2023-05-19T01:34:35;16.38;;;8.15;;
34725;SDS011;20951;50.818;4.344;2023-05-19T01:37:07;16.30;;;8.98;;
34725;SDS011;20951;50.818;4.344;2023-05-19T01:39:34;16.35;;;9.18;;
34725;SDS011;20951;50.818;4.344;2023-05-19T01:42:00;17.30;;;8.35;;
34725;SDS011;20951;50.818;4.344;2023-05-19T01:44:28;13.63;;;8.88;;
34725;SDS011;20951;50.818;4.344;2023-05-19T01:46:54;17.13;;;8.65;;
34725;SDS011;20951;50.818;4.344;2023-05-19T01:49:20;19.02;;;8.90;;
34725;SDS011;20951;50.818;4.344;2023-05-19T01:51:47;15.73;;;9.32;;
34725;SDS011;20951;50.818;4.344;2023-05-19T01:54:13;14.50;;;8.95;;
34725;SDS011;20951;50.818;4.344;2023-05-19T01:56:48;15.60;;;9.70;;
34725;SDS011;20951;50.818;4.344;2023-05-19T01:59:19;17.85;;;9.23;;
34725;SDS011;20951;50.818;4.344;2023-05-19T02:02:19;17.40;;;9.68;;
34725;SDS011;20951;50.818;4.344;2023-05-19T02:05:08;16.75;;;9.25;;
34725;SDS011;20951;50.818;4.344;2023-05-19T02:07:45;14.98;;;9.73;;
34725;SDS011;20951;50.818;4.344;2023-05-19T02:10:21;17.75;;;9.88;;
34725;SDS011;20951;50.818;4.344;2023-05-19T02:12:52;15.68;;;10.02;;
34725;SDS011;20951;50.818;4.344;2023-05-19T02:15:20;16.48;;;9.40;;
34725;SDS011;20951;50.818;4.344;2023-05-19T02:17:49;19.10;;;9.90;;
34725;SDS011;20951;50.818;4.344;2023-05-19T02:20:18;15.52;;;9.30;;
34725;SDS011;20951;50.818;4.344;2023-05-19T02:22:46;15.63;;;9.95;;
34725;SDS011;20951;50.818;4.344;2023-05-19T02:25:12;19.13;;;9.88;;
34725;SDS011;20951;50.818;4.344;2023-05-19T02:27:39;19.63;;;10.23;;
34725;SDS011;20951;50.818;4.344;2023-05-19T02:30:05;20.83;;;9.75;;
34725;SDS011;20951;50.818;4.344;2023-05-19T02:32:33;14.60;;;9.85;;
34725;SDS011;20951;50.818;4.344;2023-05-19T02:35:00;17.65;;;9.85;;
34725;SDS011;20951;50.818;4.344;2023-05-19T02:37:26;21.67;;;10.35;;
34725;SDS011;20951;50.818;4.344;2023-05-19T02:39:55;15.40;;;10.30;;
34725;SDS011;20951;50.818;4.344;2023-05-19T02:42:21;19.65;;;10.60;;
34725;SDS011;20951;50.818;4.344;2023-05-19T02:44:47;17.17;;;10.68;;
34725;SDS011;20951;50.818;4.344;2023-05-19T02:47:13;16.92;;;10.63;;
34725;SDS011;20951;50.818;4.344;2023-05-19T02:49:39;18.85;;;10.32;;
34725;SDS011;20951;50.818;4.344;2023-05-19T02:52:06;17.50;;;10.82;;
34725;SDS011;20951;50.818;4.344;2023-05-19T02:54:33;18.98;;;10.60;;
34725;SDS011;20951;50.818;4.344;2023-05-19T02:56:58;15.88;;;10.68;;
34725;SDS011;20951;50.818;4.344;2023-05-19T02:59:25;18.73;;;11.68;;
34725;SDS011;20951;50.818;4.344;2023-05-19T03:01:54;19.98;;;11.50;;
34725;SDS011;20951;50.818;4.344;2023-05-19T03:04:21;17.83;;;10.93;;
34725;SDS011;20951;50.818;4.344;2023-05-19T03:06:47;17.20;;;10.55;;
34725;SDS011;20951;50.818;4.344;2023-05-19T03:09:13;17.55;;;11.45;;
34725;SDS011;20951;50.818;4.344;2023-05-19T03:11:39;19.95;;;11.52;;
34725;SDS011;20951;50.818;4.344;2023-05-19T03:14:05;17.90;;;10.88;;
34725;SDS011;20951;50.818;4.344;2023-05-19T03:16:33;20.67;;;11.20;;
34725;SDS011;20951;50.818;4.344;2023-05-19T03:18:59;18.73;;;11.18;;
34725;SDS011;20951;50.818;4.344;2023-05-19T03:21:25;17.35;;;11.88;;
34725;SDS011;20951;50.818;4.344;2023-05-19T03:23:51;19.10;;;11.25;;
34725;SDS011;20951;50.818;4.344;2023-05-19T03:26:18;18.52;;;11.57;;
34725;SDS011;20951;50.818;4.344;2023-05-19T03:28:44;17.77;;;11.45;;
34725;SDS011;20951;50.818;4.344;2023-05-19T03:31:10;16.33;;;10.95;;
34725;SDS011;20951;50.818;4.344;2023-05-19T03:33:35;21.95;;;11.60;;
34725;SDS011;20951;50.818;4.344;2023-05-19T03:36:01;20.92;;;11.50;;
34725;SDS011;20951;50.818;4.344;2023-05-19T03:38:28;16.85;;;11.45;;
34725;SDS011;20951;50.818;4.344;2023-05-19T03:40:53;19.45;;;11.50;;
34725;SDS011;20951;50.818;4.344;2023-05-19T03:43:19;20.73;;;11.73;;
34725;SDS011;20951;50.818;4.344;2023-05-19T03:45:45;15.80;;;11.60;;
34725;SDS011;20951;50.818;4.344;2023-05-19T03:48:11;20.48;;;11.90;;
34725;SDS011;20951;50.818;4.344;2023-05-19T03:50:36;20.50;;;12.27;;
34725;SDS011;20951;50.818;4.344;2023-05-19T03:53:02;20.17;;;12.05;;
34725;SDS011;20951;50.818;4.344;2023-05-19T03:55:28;23.65;;;12.98;;
34725;SDS011;20951;50.818;4.344;2023-05-19T03:57:54;20.95;;;12.60;;
34725;SDS011;20951;50.818;4.344;2023-05-19T04:00:21;17.75;;;12.20;;
34725;SDS011;20951;50.818;4.344;2023-05-19T04:02:47;19.27;;;12.02;;
34725;SDS011;20951;50.818;4.344;2023-05-19T04:05:13;18.45;;;12.38;;
34725;SDS011;20951;50.818;4.344;2023-05-19T04:07:42;16.55;;;11.98;;
34725;SDS011;20951;50.818;4.344;2023-05-19T04:10:11;22.70;;;12.63;;
34725;SDS011;20951;50.818;4.344;2023-05-19T04:12:37;19.65;;;12.35;;
34725;SDS011;20951;50.818;4.344;2023-05-19T04:15:03;21.88;;;12.27;;
34725;SDS011;20951;50.818;4.344;2023-05-19T04:17:35;20.30;;;12.10;;
34725;SDS011;20951;50.818;4.344;2023-05-19T04:20:01;18.23;;;12.52;;
34725;SDS011;20951;50.818;4.344;2023-05-19T04:22:26;23.65;;;12.73;;
34725;SDS011;20951;50.818;4.344;2023-05-19T04:24:52;18.52;;;12.40;;
34725;SDS011;20951;50.818;4.344;2023-05-19T04:27:19;20.58;;;12.18;;
34725;SDS011;20951;50.818;4.344;2023-05-19T04:29:45;21.10;;;12.60;;
34725;SDS011;20951;50.818;4.344;2023-05-19T04:32:12;21.77;;;13.07;;
34725;SDS011;20951;50.818;4.344;2023-05-19T04:34:41;19.02;;;12.23;;
34725;SDS011;20951;50.818;4.344;2023-05-19T04:37:13;22.80;;;13.02;;
34725;SDS011;20951;50.818;4.344;2023-05-19T04:39:40;19.27;;;12.40;;
34725;SDS011;20951;50.818;4.344;2023-05-19T04:42:08;22.77;;;12.32;;
34725;SDS011;20951;50.818;4.344;2023-05-19T04:44:36;19.50;;;12.48;;
34725;SDS011;20951;50.818;4.344;2023-05-19T04:47:07;19.55;;;12.82;;
34725;SDS011;20951;50.818;4.344;2023-05-19T04:49:33;17.95;;;12.63;;
34725;SDS011;20951;50.818;4.344;2023-05-19T04:52:04;21.10;;;12.93;;
34725;SDS011;20951;50.818;4.344;2023-05-19T04:54:37;23.60;;;13.07;;
34725;SDS011;20951;50.818;4.344;2023-05-19T04:57:03;21.27;;;13.20;;
34725;SDS011;20951;50.818;4.344;2023-05-19T04:59:29;20.50;;;13.18;;
34725;SDS011;20951;50.818;4.344;2023-05-19T05:01:55;20.85;;;12.85;;
34725;SDS011;20951;50.818;4.344;2023-05-19T05:04:22;21.95;;;12.90;;
34725;SDS011;20951;50.818;4.344;2023-05-19T05:06:48;20.23;;;13.52;;
34725;SDS011;20951;50.818;4.344;2023-05-19T05:09:14;22.15;;;13.77;;
34725;SDS011;20951;50.818;4.344;2023-05-19T05:11:41;18.83;;;13.10;;
34725;SDS011;20951;50.818;4.344;2023-05-19T05:14:07;21.17;;;13.88;;
34725;SDS011;20951;50.818;4.344;2023-05-19T05:16:33;17.35;;;12.70;;
34725;SDS011;20951;50.818;4.344;2023-05-19T05:18:59;21.25;;;13.50;;
34725;SDS011;20951;50.818;4.344;2023-05-19T05:21:26;20.05;;;12.88;;
34725;SDS011;20951;50.818;4.344;2023-05-19T05:23:53;22.30;;;14.57;;
34725;SDS011;20951;50.818;4.344;2023-05-19T05:26:20;24.63;;;13.98;;
34725;SDS011;20951;50.818;4.344;2023-05-19T05:28:48;21.73;;;13.77;;
34725;SDS011;20951;50.818;4.344;2023-05-19T05:31:14;24.17;;;13.95;;
34725;SDS011;20951;50.818;4.344;2023-05-19T05:33:41;20.80;;;14.05;;
34725;SDS011;20951;50.818;4.344;2023-05-19T05:36:09;20.85;;;13.95;;
34725;SDS011;20951;50.818;4.344;2023-05-19T05:38:35;20.70;;;14.07;;
34725;SDS011;20951;50.818;4.344;2023-05-19T05:41:01;22.45;;;14.07;;
34725;SDS011;20951;50.818;4.344;2023-05-19T05:43:27;22.77;;;14.07;;
34725;SDS011;20951;50.818;4.344;2023-05-19T05:45:57;20.83;;;13.38;;
34725;SDS011;20951;50.818;4.344;2023-05-19T05:48:28;20.98;;;14.10;;
34725;SDS011;20951;50.818;4.344;2023-05-19T05:50:55;22.02;;;13.80;;
34725;SDS011;20951;50.818;4.344;2023-05-19T05:53:21;21.35;;;13.98;;
34725;SDS011;20951;50.818;4.344;2023-05-19T05:55:50;24.35;;;14.55;;
34725;SDS011;20951;50.818;4.344;2023-05-19T05:58:17;22.35;;;13.48;;
34725;SDS011;20951;50.818;4.344;2023-05-19T06:00:45;20.38;;;13.07;;
34725;SDS011;20951;50.818;4.344;2023-05-19T06:03:12;20.10;;;11.93;;
34725;SDS011;20951;50.818;4.344;2023-05-19T06:05:38;19.30;;;12.40;;
34725;SDS011;20951;50.818;4.344;2023-05-19T06:08:04;17.83;;;11.52;;
34725;SDS011;20951;50.818;4.344;2023-05-19T06:10:30;19.63;;;12.68;;
34725;SDS011;20951;50.818;4.344;2023-05-19T06:12:56;18.15;;;10.85;;
34725;SDS011;20951;50.818;4.344;2023-05-19T06:15:22;17.98;;;10.70;;
34725;SDS011;20951;50.818;4.344;2023-05-19T06:17:48;14.50;;;10.02;;
34725;SDS011;20951;50.818;4.344;2023-05-19T06:20:14;14.02;;;10.00;;
34725;SDS011;20951;50.818;4.344;2023-05-19T06:22:40;14.40;;;9.52;;
34725;SDS011;20951;50.818;4.344;2023-05-19T06:25:06;14.60;;;9.20;;
34725;SDS011;20951;50.818;4.344;2023-05-19T06:27:33;11.85;;;8.35;;
34725;SDS011;20951;50.818;4.344;2023-05-19T06:29:59;13.10;;;9.23;;
34725;SDS011;20951;50.818;4.344;2023-05-19T06:32:25;16.63;;;9.27;;
34725;SDS011;20951;50.818;4.344;2023-05-19T06:34:51;15.40;;;9.13;;
34725;SDS011;20951;50.818;4.344;2023-05-19T06:37:22;12.88;;;9.18;;
34725;SDS011;20951;50.818;4.344;2023-05-19T06:39:52;15.88;;;8.82;;
34725;SDS011;20951;50.818;4.344;2023-05-19T06:42:18;16.38;;;8.93;;
34725;SDS011;20951;50.818;4.344;2023-05-19T06:44:48;19.00;;;8.73;;
34725;SDS011;20951;50.818;4.344;2023-05-19T06:47:15;16.02;;;9.15;;
34725;SDS011;20951;50.818;4.344;2023-05-19T06:49:41;15.30;;;8.85;;
34725;SDS011;20951;50.818;4.344;2023-05-19T06:52:08;12.40;;;8.52;;
34725;SDS011;20951;50.818;4.344;2023-05-19T06:54:34;13.93;;;8.70;;
34725;SDS011;20951;50.818;4.344;2023-05-19T06:56:59;14.88;;;8.82;;
34725;SDS011;20951;50.818;4.344;2023-05-19T06:59:25;20.85;;;9.65;;
34725;SDS011;20951;50.818;4.344;2023-05-19T07:01:51;16.77;;;8.68;;
34725;SDS011;20951;50.818;4.344;2023-05-19T07:04:17;16.42;;;9.38;;
34725;SDS011;20951;50.818;4.344;2023-05-19T07:06:43;16.42;;;8.63;;
34725;SDS011;20951;50.818;4.344;2023-05-19T07:09:08;16.38;;;8.52;;
34725;SDS011;20951;50.818;4.344;2023-05-19T07:11:34;11.35;;;8.10;;
34725;SDS011;20951;50.818;4.344;2023-05-19T07:14:00;14.65;;;8.07;;
34725;SDS011;20951;50.818;4.344;2023-05-19T07:16:26;13.45;;;8.27;;
34725;SDS011;20951;50.818;4.344;2023-05-19T07:18:51;18.25;;;8.43;;
34725;SDS011;20951;50.818;4.344;2023-05-19T07:21:17;10.93;;;8.40;;
34725;SDS011;20951;50.818;4.344;2023-05-19T07:23:43;14.23;;;8.10;;
34725;SDS011;20951;50.818;4.344;2023-05-19T07:26:09;13.27;;;7.88;;
34725;SDS011;20951;50.818;4.344;2023-05-19T07:28:35;16.08;;;7.60;;
34725;SDS011;20951;50.818;4.344;2023-05-19T07:31:00;13.55;;;7.95;;
34725;SDS011;20951;50.818;4.344;2023-05-19T07:33:26;11.85;;;7.70;;
34725;SDS011;20951;50.818;4.344;2023-05-19T07:35:52;13.38;;;7.32;;
34725;SDS011;20951;50.818;4.344;2023-05-19T07:38:18;15.10;;;7.30;;
34725;SDS011;20951;50.818;4.344;2023-05-19T07:40:44;12.75;;;7.82;;
34725;SDS011;20951;50.818;4.344;2023-05-19T07:43:10;15.50;;;8.07;;
34725;SDS011;20951;50.818;4.344;2023-05-19T07:45:36;11.15;;;7.13;;
34725;SDS011;20951;50.818;4.344;2023-05-19T07:48:02;10.82;;;6.63;;
34725;SDS011;20951;50.818;4.344;2023-05-19T07:50:28;12.70;;;7.03;;
34725;SDS011;20951;50.818;4.344;2023-05-19T07:52:54;10.98;;;7.32;;
34725;SDS011;20951;50.818;4.344;2023-05-19T07:55:20;10.38;;;6.47;;
34725;SDS011;20951;50.818;4.344;2023-05-19T07:57:47;13.63;;;7.00;;
34725;SDS011;20951;50.818;4.344;2023-05-19T08:00:14;12.50;;;7.18;;
34725;SDS011;20951;50.818;4.344;2023-05-19T08:02:41;14.18;;;7.80;;
34725;SDS011;20951;50.818;4.344;2023-05-19T08:05:08;13.90;;;6.53;;
34725;SDS011;20951;50.818;4.344;2023-05-19T08:07:34;8.95;;;5.82;;
34725;SDS011;20951;50.818;4.344;2023-05-19T08:10:00;13.15;;;6.50;;
34725;SDS011;20951;50.818;4.344;2023-05-19T08:12:27;12.90;;;6.05;;
34725;SDS011;20951;50.818;4.344;2023-05-19T08:14:53;13.13;;;6.00;;
34725;SDS011;20951;50.818;4.344;2023-05-19T08:17:19;11.82;;;6.82;;
34725;SDS011;20951;50.818;4.344;2023-05-19T08:19:46;12.38;;;7.05;;
34725;SDS011;20951;50.818;4.344;2023-05-19T08:22:11;12.88;;;6.60;;
34725;SDS011;20951;50.818;4.344;2023-05-19T08:24:37;14.05;;;6.45;;
34725;SDS011;20951;50.818;4.344;2023-05-19T08:27:05;13.75;;;6.00;;
34725;SDS011;20951;50.818;4.344;2023-05-19T08:29:31;12.63;;;6.55;;
34725;SDS011;20951;50.818;4.344;2023-05-19T08:31:57;12.15;;;5.82;;
34725;SDS011;20951;50.818;4.344;2023-05-19T08:34:23;10.57;;;5.90;;
34725;SDS011;20951;50.818;4.344;2023-05-19T08:36:48;9.63;;;5.90;;
34725;SDS011;20951;50.818;4.344;2023-05-19T08:39:14;11.15;;;5.88;;
34725;SDS011;20951;50.818;4.344;2023-05-19T08:41:42;11.32;;;5.47;;
34725;SDS011;20951;50.818;4.344;2023-05-19T08:44:08;11.45;;;5.03;;
34725;SDS011;20951;50.818;4.344;2023-05-19T08:46:34;11.35;;;5.10;;
34725;SDS011;20951;50.818;4.344;2023-05-19T08:49:04;8.52;;;4.63;;
34725;SDS011;20951;50.818;4.344;2023-05-19T08:51:40;12.10;;;4.70;;
34725;SDS011;20951;50.818;4.344;2023-05-19T08:54:15;14.82;;;4.55;;
34725;SDS011;20951;50.818;4.344;2023-05-19T08:56:44;11.82;;;4.93;;
34725;SDS011;20951;50.818;4.344;2023-05-19T08:59:12;10.10;;;4.65;;
34725;SDS011;20951;50.818;4.344;2023-05-19T09:01:40;9.57;;;4.40;;
34725;SDS011;20951;50.818;4.344;2023-05-19T09:04:08;14.07;;;4.32;;
34725;SDS011;20951;50.818;4.344;2023-05-19T09:06:34;10.75;;;4.10;;
34725;SDS011;20951;50.818;4.344;2023-05-19T09:09:00;8.85;;;3.92;;
34725;SDS011;20951;50.818;4.344;2023-05-19T09:11:27;10.35;;;4.57;;
34725;SDS011;20951;50.818;4.344;2023-05-19T09:13:53;8.35;;;3.88;;
34725;SDS011;20951;50.818;4.344;2023-05-19T09:16:19;8.82;;;3.35;;
34725;SDS011;20951;50.818;4.344;2023-05-19T09:18:52;12.82;;;3.63;;
34725;SDS011;20951;50.818;4.344;2023-05-19T09:21:31;11.57;;;3.40;;
34725;SDS011;20951;50.818;4.344;2023-05-19T09:23:58;9.23;;;3.67;;
34725;SDS011;20951;50.818;4.344;2023-05-19T09:26:38;8.07;;;3.38;;
34725;SDS011;20951;50.818;4.344;2023-05-19T09:29:11;7.55;;;3.20;;
34725;SDS011;20951;50.818;4.344;2023-05-19T09:31:47;10.68;;;2.95;;
34725;SDS011;20951;50.818;4.344;2023-05-19T09:34:16;6.60;;;2.78;;
34725;SDS011;20951;50.818;4.344;2023-05-19T09:36:43;7.82;;;2.65;;
34725;SDS011;20951;50.818;4.344;2023-05-19T09:39:17;5.97;;;2.47;;
34725;SDS011;20951;50.818;4.344;2023-05-19T09:41:44;11.10;;;2.90;;
34725;SDS011;20951;50.818;4.344;2023-05-19T09:44:20;8.27;;;2.70;;
34725;SDS011;20951;50.818;4.344;2023-05-19T09:46:55;7.07;;;2.45;;
34725;SDS011;20951;50.818;4.344;2023-05-19T09:49:23;9.75;;;2.95;;
34725;SDS011;20951;50.818;4.344;2023-05-19T09:52:02;8.80;;;2.55;;
34725;SDS011;20951;50.818;4.344;2023-05-19T09:54:28;8.10;;;2.50;;
34725;SDS011;20951;50.818;4.344;2023-05-19T09:56:59;7.50;;;2.75;;
34725;SDS011;20951;50.818;4.344;2023-05-19T09:59:27;5.43;;;2.22;;
34725;SDS011;20951;50.818;4.344;2023-05-19T10:01:59;6.97;;;2.50;;
34725;SDS011;20951;50.818;4.344;2023-05-19T10:04:29;8.27;;;2.25;;
34725;SDS011;20951;50.818;4.344;2023-05-19T10:06:57;10.35;;;2.70;;
34725;SDS011;20951;50.818;4.344;2023-05-19T10:09:24;7.20;;;2.45;;
34725;SDS011;20951;50.818;4.344;2023-05-19T10:11:56;7.32;;;2.97;;
34725;SDS011;20951;50.818;4.344;2023-05-19T10:14:26;8.68;;;2.85;;
34725;SDS011;20951;50.818;4.344;2023-05-19T10:16:54;8.90;;;2.92;;
34725;SDS011;20951;50.818;4.344;2023-05-19T10:19:23;10.90;;;3.03;;
34725;SDS011;20951;50.818;4.344;2023-05-19T10:21:52;8.02;;;2.78;;
34725;SDS011;20951;50.818;4.344;2023-05-19T10:24:18;8.27;;;2.55;;
34725;SDS011;20951;50.818;4.344;2023-05-19T10:26:50;9.93;;;2.80;;
34725;SDS011;20951;50.818;4.344;2023-05-19T10:29:24;11.02;;;3.28;;
34725;SDS011;20951;50.818;4.344;2023-05-19T10:31:57;11.45;;;4.50;;
34725;SDS011;20951;50.818;4.344;2023-05-19T10:40:29;8.00;;;2.85;;
34725;SDS011;20951;50.818;4.344;2023-05-19T10:45:53;8.23;;;2.75;;
34725;SDS011;20951;50.818;4.344;2023-05-19T10:48:22;8.60;;;3.13;;
34725;SDS011;20951;50.818;4.344;2023-05-19T10:50:53;7.47;;;2.60;;
34725;SDS011;20951;50.818;4.344;2023-05-19T10:53:29;7.60;;;2.60;;
34725;SDS011;20951;50.818;4.344;2023-05-19T10:56:01;8.18;;;3.08;;
34725;SDS011;20951;50.818;4.344;2023-05-19T11:01:12;10.13;;;3.03;;
34725;SDS011;20951;50.818;4.344;2023-05-19T11:03:47;9.40;;;2.88;;
34725;SDS011;20951;50.818;4.344;2023-05-19T11:06:20;9.38;;;3.10;;
34725;SDS011;20951;50.818;4.344;2023-05-19T11:09:13;7.95;;;3.17;;
34725;SDS011;20951;50.818;4.344;2023-05-19T11:11:48;8.20;;;3.10;;
34725;SDS011;20951;50.818;4.344;2023-05-19T11:16:50;8.88;;;3.17;;
34725;SDS011;20951;50.818;4.344;2023-05-19T11:19:26;9.00;;;3.58;;
34725;SDS011;20951;50.818;4.344;2023-05-19T11:22:10;8.30;;;2.80;;
34725;SDS011;20951;50.818;4.344;2023-05-19T11:24:43;8.18;;;2.80;;
34725;SDS011;20951;50.818;4.344;2023-05-19T11:27:25;7.55;;;3.20;;
34725;SDS011;20951;50.818;4.344;2023-05-19T11:32:32;8.18;;;2.65;;
34725;SDS011;20951;50.818;4.344;2023-05-19T11:35:00;11.23;;;3.17;;
34725;SDS011;20951;50.818;4.344;2023-05-19T11:37:27;8.00;;;2.83;;
34725;SDS011;20951;50.818;4.344;2023-05-19T11:39:56;9.57;;;3.03;;
34725;SDS011;20951;50.818;4.344;2023-05-19T11:42:25;7.75;;;3.10;;
34725;SDS011;20951;50.818;4.344;2023-05-19T11:44:53;7.90;;;2.85;;
34725;SDS011;20951;50.818;4.344;2023-05-19T11:47:19;11.20;;;2.97;;
34725;SDS011;20951;50.818;4.344;2023-05-19T11:49:49;8.50;;;2.88;;
34725;SDS011;20951;50.818;4.344;2023-05-19T11:52:22;6.25;;;2.83;;
34725;SDS011;20951;50.818;4.344;2023-05-19T11:54:49;9.70;;;2.95;;
34725;SDS011;20951;50.818;4.344;2023-05-19T11:57:15;5.60;;;2.67;;
34725;SDS011;20951;50.818;4.344;2023-05-19T11:59:41;10.43;;;3.33;;
34725;SDS011;20951;50.818;4.344;2023-05-19T12:04:40;8.75;;;2.67;;
34725;SDS011;20951;50.818;4.344;2023-05-19T12:07:06;9.70;;;2.75;;
34725;SDS011;20951;50.818;4.344;2023-05-19T12:09:32;10.00;;;2.95;;
34725;SDS011;20951;50.818;4.344;2023-05-19T12:12:01;6.93;;;3.00;;
34725;SDS011;20951;50.818;4.344;2023-05-19T12:14:31;12.90;;;3.25;;
34725;SDS011;20951;50.818;4.344;2023-05-19T12:17:16;9.68;;;3.13;;
34725;SDS011;20951;50.818;4.344;2023-05-19T12:19:47;7.30;;;2.92;;
34725;SDS011;20951;50.818;4.344;2023-05-19T12:22:16;9.65;;;2.70;;
34725;SDS011;20951;50.818;4.344;2023-05-19T12:24:47;9.98;;;2.65;;
34725;SDS011;20951;50.818;4.344;2023-05-19T12:27:17;9.73;;;3.03;;
34725;SDS011;20951;50.818;4.344;2023-05-19T12:29:52;8.60;;;3.03;;
34725;SDS011;20951;50.818;4.344;2023-05-19T12:32:23;7.70;;;2.80;;
34725;SDS011;20951;50.818;4.344;2023-05-19T12:34:51;7.78;;;2.83;;
34725;SDS011;20951;50.818;4.344;2023-05-19T12:37:19;10.63;;;2.72;;
34725;SDS011;20951;50.818;4.344;2023-05-19T12:39:51;6.70;;;3.00;;
34725;SDS011;20951;50.818;4.344;2023-05-19T12:42:21;8.23;;;2.80;;
34725;SDS011;20951;50.818;4.344;2023-05-19T12:44:55;7.15;;;2.70;;
34725;SDS011;20951;50.818;4.344;2023-05-19T12:47:31;7.93;;;2.47;;
34725;SDS011;20951;50.818;4.344;2023-05-19T12:50:04;9.20;;;2.85;;
34725;SDS011;20951;50.818;4.344;2023-05-19T12:52:39;8.35;;;2.83;;
34725;SDS011;20951;50.818;4.344;2023-05-19T12:55:10;7.85;;;2.55;;
34725;SDS011;20951;50.818;4.344;2023-05-19T12:57:43;7.68;;;2.53;;
34725;SDS011;20951;50.818;4.344;2023-05-19T13:00:17;8.60;;;2.40;;
34725;SDS011;20951;50.818;4.344;2023-05-19T13:03:02;7.65;;;2.65;;
34725;SDS011;20951;50.818;4.344;2023-05-19T13:05:39;13.40;;;2.90;;
34725;SDS011;20951;50.818;4.344;2023-05-19T13:08:10;9.27;;;2.85;;
34725;SDS011;20951;50.818;4.344;2023-05-19T13:10:43;8.82;;;3.13;;
34725;SDS011;20951;50.818;4.344;2023-05-19T13:13:15;13.48;;;2.78;;
34725;SDS011;20951;50.818;4.344;2023-05-19T13:15:46;10.13;;;2.63;;
34725;SDS011;20951;50.818;4.344;2023-05-19T13:18:16;9.05;;;2.55;;
34725;SDS011;20951;50.818;4.344;2023-05-19T13:20:47;9.45;;;2.90;;
34725;SDS011;20951;50.818;4.344;2023-05-19T13:23:18;6.50;;;2.55;;
34725;SDS011;20951;50.818;4.344;2023-05-19T13:25:49;7.28;;;2.50;;
34725;SDS011;20951;50.818;4.344;2023-05-19T13:28:20;8.65;;;2.50;;
34725;SDS011;20951;50.818;4.344;2023-05-19T13:30:51;6.70;;;2.58;;
34725;SDS011;20951;50.818;4.344;2023-05-19T13:33:22;7.55;;;2.67;;
34725;SDS011;20951;50.818;4.344;2023-05-19T13:35:53;7.63;;;2.30;;
34725;SDS011;20951;50.818;4.344;2023-05-19T13:38:24;7.80;;;2.88;;
34725;SDS011;20951;50.818;4.344;2023-05-19T13:40:55;7.13;;;2.40;;
34725;SDS011;20951;50.818;4.344;2023-05-19T13:43:25;5.88;;;2.30;;
34725;SDS011;20951;50.818;4.344;2023-05-19T13:45:54;7.35;;;2.42;;
34725;SDS011;20951;50.818;4.344;2023-05-19T13:48:25;7.35;;;2.58;;
34725;SDS011;20951;50.818;4.344;2023-05-19T13:50:55;6.40;;;2.65;;
34725;SDS011;20951;50.818;4.344;2023-05-19T13:53:23;9.20;;;2.42;;
34725;SDS011;20951;50.818;4.344;2023-05-19T13:55:53;6.95;;;2.40;;
34725;SDS011;20951;50.818;4.344;2023-05-19T13:58:23;10.13;;;2.30;;
34725;SDS011;20951;50.818;4.344;2023-05-19T14:00:52;9.43;;;2.78;;
34725;SDS011;20951;50.818;4.344;2023-05-19T14:03:24;9.13;;;2.70;;
34725;SDS011;20951;50.818;4.344;2023-05-19T14:05:53;7.25;;;2.47;;
34725;SDS011;20951;50.818;4.344;2023-05-19T14:08:24;9.02;;;2.83;;
34725;SDS011;20951;50.818;4.344;2023-05-19T14:10:51;10.48;;;3.38;;
34725;SDS011;20951;50.818;4.344;2023-05-19T14:13:20;9.35;;;2.78;;
34725;SDS011;20951;50.818;4.344;2023-05-19T14:15:48;13.10;;;2.90;;
34725;SDS011;20951;50.818;4.344;2023-05-19T14:18:19;8.32;;;2.88;;
34725;SDS011;20951;50.818;4.344;2023-05-19T14:20:49;7.18;;;2.70;;
34725;SDS011;20951;50.818;4.344;2023-05-19T14:23:19;8.52;;;2.80;;
34725;SDS011;20951;50.818;4.344;2023-05-19T14:25:50;9.25;;;3.47;;
34725;SDS011;20951;50.818;4.344;2023-05-19T14:28:21;9.23;;;2.90;;
34725;SDS011;20951;50.818;4.344;2023-05-19T14:30:51;9.82;;;2.75;;
34725;SDS011;20951;50.818;4.344;2023-05-19T14:33:17;5.40;;;2.35;;
34725;SDS011;20951;50.818;4.344;2023-05-19T14:35:44;6.95;;;2.42;;
34725;SDS011;20951;50.818;4.344;2023-05-19T14:38:16;7.13;;;2.92;;
34725;SDS011;20951;50.818;4.344;2023-05-19T14:40:46;11.43;;;2.83;;
34725;SDS011;20951;50.818;4.344;2023-05-19T14:43:16;7.82;;;2.63;;
34725;SDS011;20951;50.818;4.344;2023-05-19T14:45:46;9.10;;;2.65;;
34725;SDS011;20951;50.818;4.344;2023-05-19T14:48:17;8.93;;;2.47;;
34725;SDS011;20951;50.818;4.344;2023-05-19T14:50:48;9.65;;;2.60;;
34725;SDS011;20951;50.818;4.344;2023-05-19T14:53:14;7.75;;;2.95;;
34725;SDS011;20951;50.818;4.344;2023-05-19T14:55:41;8.48;;;3.03;;
34725;SDS011;20951;50.818;4.344;2023-05-19T14:58:11;11.90;;;3.30;;
34725;SDS011;20951;50.818;4.344;2023-05-19T15:00:43;8.10;;;2.72;;
34725;SDS011;20951;50.818;4.344;2023-05-19T15:03:16;7.82;;;3.15;;
34725;SDS011;20951;50.818;4.344;2023-05-19T15:05:47;8.45;;;2.72;;
34725;SDS011;20951;50.818;4.344;2023-05-19T15:08:17;8.85;;;2.80;;
34725;SDS011;20951;50.818;4.344;2023-05-19T15:10:49;10.30;;;2.90;;
34725;SDS011;20951;50.818;4.344;2023-05-19T15:13:19;10.93;;;2.72;;
34725;SDS011;20951;50.818;4.344;2023-05-19T15:15:52;7.63;;;2.47;;